sim
Sign-in with your pilot id or email,
or register
Callsign
Passwort

Schedule Details

Flight Number: OEO7119
Departure: London Heathrow Airport (EGLL) at 09:30
Arrival: Mumbai Chhatrapati Shivaji International Airport (VABB) at 18:10

Weather Information
Getting current METAR information for EGLL 152320Z 22011KT 9999 -RA FEW022CB SCT027 BKN032 05/05 Q0999 TEMPO RA
Getting current METAR information for VABB 152300Z 00000KT 2100 HZ NSC 24/20 Q1011 NOSIG

Schedule Frequency

Route Map